createdAt,value
2023-05-14T00:00:04.158Z,9.57
2023-05-14T00:02:30.663Z,9.05
2023-05-14T00:04:57.074Z,8.43
2023-05-14T00:07:23.515Z,9.55
2023-05-14T00:09:49.862Z,8.77
2023-05-14T00:12:16.216Z,9.07
2023-05-14T00:14:42.604Z,7.20
2023-05-14T00:17:08.961Z,7.45
2023-05-14T00:19:35.324Z,7.82
2023-05-14T00:22:01.673Z,7.45
2023-05-14T00:24:28.192Z,7.55
2023-05-14T00:26:54.515Z,7.63
2023-05-14T00:29:20.794Z,6.18
2023-05-14T00:31:47.254Z,7.57
2023-05-14T00:34:13.610Z,6.32
2023-05-14T00:36:39.984Z,5.85
2023-05-14T00:39:06.610Z,8.60
2023-05-14T00:41:33.193Z,6.03
2023-05-14T00:43:59.620Z,5.72
2023-05-14T00:46:26.318Z,6.45
2023-05-14T00:48:53.586Z,5.63
2023-05-14T00:51:20.459Z,5.88
2023-05-14T00:53:47.354Z,6.15
2023-05-14T00:56:15.365Z,5.85
2023-05-14T00:58:41.720Z,6.10
2023-05-14T01:01:08.422Z,5.75
2023-05-14T01:03:35.745Z,6.63
2023-05-14T01:06:30.093Z,6.13
2023-05-14T01:09:24.126Z,6.50
2023-05-14T01:12:15.783Z,6.55
2023-05-14T01:14:58.384Z,5.32
2023-05-14T01:17:28.202Z,6.38
2023-05-14T01:19:55.357Z,5.53
2023-05-14T01:22:21.743Z,6.05
2023-05-14T01:24:48.108Z,6.03
2023-05-14T01:27:17.425Z,6.40
2023-05-14T01:29:52.567Z,6.43
2023-05-14T01:32:20.555Z,6.18
2023-05-14T01:34:48.732Z,6.57
2023-05-14T01:37:15.881Z,6.13
2023-05-14T01:39:42.793Z,6.53
2023-05-14T01:42:09.646Z,7.55
2023-05-14T01:44:36.460Z,7.15
2023-05-14T01:47:03.414Z,7.20
2023-05-14T01:49:29.841Z,7.07
2023-05-14T01:51:56.323Z,7.40
2023-05-14T01:54:22.660Z,7.20
2023-05-14T01:56:48.968Z,8.77
2023-05-14T01:59:15.973Z,7.75
2023-05-14T02:01:42.335Z,7.47
2023-05-14T02:04:08.819Z,7.90
2023-05-14T02:06:35.195Z,8.68
2023-05-14T02:09:02.787Z,8.20
2023-05-14T02:11:29.154Z,7.18
2023-05-14T02:13:55.530Z,7.47
2023-05-14T02:16:21.879Z,7.68
2023-05-14T02:18:48.324Z,9.77
2023-05-14T02:21:14.763Z,7.03
2023-05-14T02:23:42.184Z,7.07
2023-05-14T02:26:10.602Z,6.78
2023-05-14T02:28:36.936Z,6.25
2023-05-14T02:31:03.336Z,5.70
2023-05-14T02:33:29.976Z,6.15
2023-05-14T02:35:56.416Z,7.22
2023-05-14T02:38:23.144Z,6.35
2023-05-14T02:40:49.502Z,6.78
2023-05-14T02:43:15.879Z,7.05
2023-05-14T02:45:42.261Z,7.20
2023-05-14T02:48:09.123Z,6.80
2023-05-14T02:50:35.542Z,6.78
2023-05-14T02:53:01.875Z,7.15
2023-05-14T02:55:28.232Z,6.88
2023-05-14T02:57:54.529Z,8.00
2023-05-14T03:00:21.440Z,6.82
2023-05-14T03:02:48.511Z,6.63
2023-05-14T03:05:15.660Z,6.85
2023-05-14T03:07:41.999Z,6.10
2023-05-14T03:10:08.796Z,7.75
2023-05-14T03:12:35.405Z,10.40
2023-05-14T03:15:01.799Z,8.63
2023-05-14T03:17:28.194Z,12.52
2023-05-14T03:19:54.674Z,12.45
2023-05-14T03:22:21.030Z,10.43
2023-05-14T03:24:47.340Z,6.50
2023-05-14T03:27:13.727Z,6.95
2023-05-14T03:29:40.007Z,8.05
2023-05-14T03:32:06.842Z,8.27
2023-05-14T03:34:33.306Z,9.70
2023-05-14T03:36:59.683Z,8.57
2023-05-14T03:39:26.016Z,8.60
2023-05-14T03:41:52.332Z,9.27
2023-05-14T03:44:20.026Z,9.20
2023-05-14T03:46:46.419Z,8.60
2023-05-14T03:49:12.751Z,10.63
2023-05-14T03:51:39.052Z,10.23
2023-05-14T03:54:07.630Z,11.50
2023-05-14T03:56:33.962Z,7.57
2023-05-14T03:59:00.257Z,8.52
2023-05-14T04:01:26.567Z,9.40
2023-05-14T04:03:53.074Z,11.10
2023-05-14T04:06:19.618Z,10.00
2023-05-14T04:08:45.951Z,12.35
2023-05-14T04:11:12.383Z,13.18
2023-05-14T04:13:38.753Z,16.48
2023-05-14T04:16:05.504Z,17.25
2023-05-14T04:18:35.186Z,14.85
2023-05-14T04:21:02.771Z,15.35
2023-05-14T04:23:29.379Z,12.98
2023-05-14T04:25:55.812Z,11.52
2023-05-14T04:28:22.167Z,12.63
2023-05-14T04:30:48.896Z,11.68
2023-05-14T04:33:15.599Z,14.43
2023-05-14T04:35:41.987Z,15.10
2023-05-14T04:38:09.041Z,14.35
2023-05-14T04:40:35.357Z,10.65
2023-05-14T04:43:01.632Z,11.18
2023-05-14T04:45:32.257Z,10.35
2023-05-14T04:48:00.742Z,11.50
2023-05-14T04:50:27.157Z,11.48
2023-05-14T04:52:55.669Z,13.07
2023-05-14T04:55:22.672Z,13.63
2023-05-14T04:57:49.259Z,11.10
2023-05-14T05:00:17.300Z,11.32
2023-05-14T05:02:43.722Z,12.90
2023-05-14T05:05:10.417Z,10.80
2023-05-14T05:07:36.762Z,11.23
2023-05-14T05:10:03.212Z,11.55
2023-05-14T05:12:30.093Z,10.68
2023-05-14T05:14:57.411Z,10.90
2023-05-14T05:17:24.698Z,10.73
2023-05-14T05:19:53.435Z,9.88
2023-05-14T05:22:20.180Z,10.82
2023-05-14T05:24:49.245Z,12.02
2023-05-14T05:27:16.545Z,10.60
2023-05-14T05:29:44.064Z,11.05
2023-05-14T05:32:10.595Z,11.63
2023-05-14T05:34:37.241Z,13.18
2023-05-14T05:37:05.866Z,11.50
2023-05-14T05:39:34.659Z,10.55
2023-05-14T05:42:02.481Z,10.82
2023-05-14T05:44:28.801Z,11.52
2023-05-14T05:46:57.081Z,11.85
2023-05-14T05:49:23.818Z,10.50
2023-05-14T05:51:50.476Z,9.98
2023-05-14T05:54:16.817Z,9.63
2023-05-14T05:56:45.479Z,10.32
2023-05-14T05:59:12.171Z,9.93
2023-05-14T06:01:38.629Z,12.85
2023-05-14T06:04:06.186Z,9.90
2023-05-14T06:06:33.022Z,9.43
2023-05-14T06:08:59.463Z,9.80
2023-05-14T06:11:26.527Z,9.38
2023-05-14T06:13:53.172Z,8.70
2023-05-14T06:16:19.597Z,9.05
2023-05-14T06:18:46.365Z,8.55
2023-05-14T06:21:12.750Z,9.00
2023-05-14T06:23:39.776Z,8.20
2023-05-14T06:26:06.263Z,8.75
2023-05-14T06:28:32.658Z,8.30
2023-05-14T06:30:59.054Z,8.30
2023-05-14T06:33:30.639Z,7.80
2023-05-14T06:35:59.490Z,8.65
2023-05-14T06:38:25.954Z,7.65
2023-05-14T06:40:55.483Z,8.20
2023-05-14T06:43:21.865Z,7.43
2023-05-14T06:45:52.121Z,7.07
2023-05-14T06:48:19.023Z,7.47
2023-05-14T06:50:46.277Z,7.72
2023-05-14T06:53:12.743Z,7.22
2023-05-14T06:55:39.415Z,7.57
2023-05-14T06:58:09.368Z,7.10
2023-05-14T07:00:35.785Z,8.57
2023-05-14T07:03:02.191Z,7.10
2023-05-14T07:05:28.928Z,5.95
2023-05-14T07:07:55.316Z,6.68
2023-05-14T07:10:22.101Z,6.40
2023-05-14T07:12:49.419Z,6.35
2023-05-14T07:15:15.937Z,5.60
2023-05-14T07:17:42.494Z,6.30
2023-05-14T07:20:09.628Z,5.45
2023-05-14T07:22:35.974Z,6.13
2023-05-14T07:25:02.847Z,6.03
2023-05-14T07:27:29.326Z,6.35
2023-05-14T07:29:55.696Z,5.50
2023-05-14T07:32:22.163Z,5.75
2023-05-14T07:34:48.783Z,5.32
2023-05-14T07:37:15.260Z,5.10
2023-05-14T07:39:41.770Z,5.63
2023-05-14T07:42:08.175Z,5.35
2023-05-14T07:44:34.525Z,5.15
2023-05-14T07:47:00.938Z,5.70
2023-05-14T07:49:27.296Z,5.85
2023-05-14T07:51:53.706Z,5.72
2023-05-14T07:54:20.057Z,5.53
2023-05-14T07:56:46.516Z,5.43
2023-05-14T07:59:12.861Z,5.45
2023-05-14T08:01:39.584Z,5.07
2023-05-14T08:04:14.426Z,5.82
2023-05-14T08:06:40.862Z,5.20
2023-05-14T08:09:08.574Z,21.92
2023-05-14T08:11:35.175Z,6.65
2023-05-14T08:14:01.536Z,5.13
2023-05-14T08:16:27.914Z,5.00
2023-05-14T08:18:54.313Z,5.40
2023-05-14T08:21:20.959Z,7.25
2023-05-14T08:23:47.355Z,5.30
2023-05-14T08:26:13.693Z,5.38
2023-05-14T08:28:40.253Z,21.58
2023-05-14T08:31:06.737Z,4.72
2023-05-14T08:33:33.135Z,5.40
2023-05-14T08:36:00.515Z,5.78
2023-05-14T08:38:27.044Z,5.32
2023-05-14T08:40:57.919Z,5.43
2023-05-14T08:43:45.780Z,4.47
2023-05-14T08:46:15.036Z,4.85
2023-05-14T08:48:43.128Z,5.70
2023-05-14T08:51:09.671Z,4.82
2023-05-14T08:53:38.071Z,4.20
2023-05-14T08:56:05.894Z,4.43
2023-05-14T08:58:32.380Z,8.35
2023-05-14T09:00:59.178Z,4.68
2023-05-14T09:03:25.804Z,4.15
2023-05-14T09:05:53.245Z,4.15
2023-05-14T09:08:19.846Z,4.10
2023-05-14T09:10:46.189Z,4.47
2023-05-14T09:13:12.879Z,4.63
2023-05-14T09:15:41.228Z,4.30
2023-05-14T09:18:08.108Z,4.00
2023-05-14T09:20:34.636Z,4.38
2023-05-14T09:23:01.638Z,4.10
2023-05-14T09:25:31.853Z,3.60
2023-05-14T09:27:59.060Z,3.72
2023-05-14T09:30:26.765Z,4.07
2023-05-14T09:32:54.681Z,4.25
2023-05-14T09:35:24.972Z,3.50
2023-05-14T09:37:53.717Z,3.40
2023-05-14T09:42:49.091Z,4.22
2023-05-14T09:45:16.197Z,4.40
2023-05-14T09:47:43.109Z,5.70
2023-05-14T09:50:09.764Z,4.35
2023-05-14T09:52:37.225Z,4.00
2023-05-14T09:55:06.174Z,3.80
2023-05-14T09:57:33.454Z,3.92
2023-05-14T10:00:00.307Z,4.30
2023-05-14T10:02:33.760Z,4.20
2023-05-14T10:05:03.944Z,4.03
2023-05-14T10:07:36.700Z,4.20
2023-05-14T10:10:06.320Z,4.43
2023-05-14T10:12:36.523Z,3.60
2023-05-14T10:15:06.865Z,3.13
2023-05-14T10:17:36.663Z,3.22
2023-05-14T10:20:05.604Z,3.97
2023-05-14T10:22:34.889Z,4.20
2023-05-14T10:25:03.068Z,4.40
2023-05-14T10:27:30.237Z,4.10
2023-05-14T10:29:57.159Z,4.28
2023-05-14T10:32:25.825Z,3.95
2023-05-14T10:34:53.397Z,4.18
2023-05-14T10:37:25.353Z,4.50
2023-05-14T10:40:02.281Z,3.95
2023-05-14T10:42:43.419Z,4.75
2023-05-14T10:45:14.583Z,4.13
2023-05-14T10:47:46.521Z,4.22
2023-05-14T10:50:14.877Z,4.40
2023-05-14T10:52:45.710Z,4.22
2023-05-14T10:55:16.771Z,4.78
2023-05-14T10:57:45.936Z,4.10
2023-05-14T11:00:13.663Z,4.38
2023-05-14T11:02:41.902Z,3.88
2023-05-14T11:05:11.648Z,4.30
2023-05-14T11:07:50.324Z,4.25
2023-05-14T11:10:19.400Z,4.38
2023-05-14T11:12:47.676Z,4.10
2023-05-14T11:15:16.273Z,4.22
2023-05-14T11:17:44.389Z,4.25
2023-05-14T11:20:11.821Z,3.97
2023-05-14T11:22:40.088Z,3.78
2023-05-14T11:25:07.439Z,4.20
2023-05-14T11:27:35.874Z,4.40
2023-05-14T11:30:02.825Z,4.30
2023-05-14T11:32:31.772Z,4.18
2023-05-14T11:34:58.401Z,4.13
2023-05-14T11:37:26.997Z,5.40
2023-05-14T11:39:55.558Z,4.28
2023-05-14T11:42:22.370Z,4.10
2023-05-14T11:44:51.706Z,3.53
2023-05-14T11:47:19.812Z,3.88
2023-05-14T11:49:46.939Z,3.95
2023-05-14T11:52:15.675Z,3.63
2023-05-14T11:54:43.538Z,3.92
2023-05-14T11:57:12.693Z,4.07
2023-05-14T11:59:40.111Z,4.03
2023-05-14T12:02:14.858Z,4.35
2023-05-14T12:04:45.154Z,3.90
2023-05-14T12:07:13.237Z,3.42
2023-05-14T12:09:45.209Z,3.83
2023-05-14T12:12:12.852Z,3.78
2023-05-14T12:14:42.630Z,4.43
2023-05-14T12:17:16.665Z,4.35
2023-05-14T12:19:44.520Z,4.22
2023-05-14T12:22:12.463Z,4.28
2023-05-14T12:24:39.248Z,4.05
2023-05-14T12:27:07.470Z,3.90
2023-05-14T12:29:41.326Z,4.90
2023-05-14T12:32:09.763Z,3.95
2023-05-14T12:34:37.657Z,3.88
2023-05-14T12:37:05.202Z,4.10
2023-05-14T12:39:34.205Z,4.28
2023-05-14T12:42:01.317Z,4.45
2023-05-14T12:44:28.083Z,3.88
2023-05-14T12:46:54.753Z,3.58
2023-05-14T12:49:22.269Z,4.03
2023-05-14T12:51:48.761Z,4.32
2023-05-14T12:54:19.176Z,3.75
2023-05-14T12:56:45.685Z,3.47
2023-05-14T12:59:15.209Z,3.80
2023-05-14T13:01:42.290Z,3.92
2023-05-14T13:04:12.390Z,3.50
2023-05-14T13:06:39.658Z,4.28
2023-05-14T13:09:07.333Z,4.05
2023-05-14T13:11:33.778Z,3.50
2023-05-14T13:14:01.597Z,3.70
2023-05-14T13:16:28.803Z,3.47
2023-05-14T13:18:55.526Z,4.07
2023-05-14T13:21:22.101Z,4.03
2023-05-14T13:23:48.996Z,3.50
2023-05-14T13:26:15.890Z,3.67
2023-05-14T13:28:42.930Z,3.72
2023-05-14T13:31:11.455Z,3.55
2023-05-14T13:33:42.560Z,3.90
2023-05-14T13:36:10.158Z,3.45
2023-05-14T13:38:36.542Z,3.42
2023-05-14T13:41:03.123Z,3.80
2023-05-14T13:43:35.943Z,3.40
2023-05-14T13:46:03.799Z,3.83
2023-05-14T13:48:33.762Z,4.10
2023-05-14T13:51:02.615Z,3.33
2023-05-14T13:55:58.387Z,4.90
2023-05-14T13:58:26.103Z,4.03
2023-05-14T14:00:53.522Z,4.15
2023-05-14T14:03:20.613Z,3.30
2023-05-14T14:05:47.568Z,5.82
2023-05-14T14:10:48.459Z,3.72
2023-05-14T14:13:14.866Z,3.25
2023-05-14T14:15:41.231Z,3.40
2023-05-14T14:18:07.601Z,3.90
2023-05-14T14:20:34.031Z,3.22
2023-05-14T14:23:00.544Z,3.42
2023-05-14T14:25:27.134Z,3.13
2023-05-14T14:27:53.489Z,5.22
2023-05-14T14:30:19.867Z,3.53
2023-05-14T14:32:49.869Z,3.85
2023-05-14T14:35:17.969Z,3.05
2023-05-14T14:37:48.901Z,3.53
2023-05-14T14:40:16.446Z,3.35
2023-05-14T14:42:43.208Z,3.30
2023-05-14T14:45:10.038Z,3.10
2023-05-14T14:47:36.440Z,3.35
2023-05-14T14:50:03.078Z,2.80
2023-05-14T14:52:29.604Z,3.03
2023-05-14T14:54:56.109Z,3.10
2023-05-14T14:57:23.000Z,3.47
2023-05-14T14:59:49.601Z,2.90
2023-05-14T15:02:16.183Z,3.35
2023-05-14T15:04:42.795Z,3.17
2023-05-14T15:07:09.302Z,2.78
2023-05-14T15:09:35.666Z,2.95
2023-05-14T15:12:02.242Z,3.15
2023-05-14T15:14:28.887Z,2.83
2023-05-14T15:16:55.341Z,2.40
2023-05-14T15:19:21.872Z,2.30
2023-05-14T15:21:51.780Z,2.70
2023-05-14T15:24:19.243Z,2.63
2023-05-14T15:26:45.862Z,2.88
2023-05-14T15:29:12.262Z,2.95
2023-05-14T15:31:38.699Z,3.42
2023-05-14T15:34:06.201Z,3.40
2023-05-14T15:36:32.600Z,3.10
2023-05-14T15:39:00.004Z,3.10
2023-05-14T15:41:28.537Z,3.05
2023-05-14T15:43:55.588Z,3.33
2023-05-14T15:46:26.602Z,3.38
2023-05-14T15:48:53.202Z,3.35
2023-05-14T15:51:19.766Z,3.38
2023-05-14T15:53:46.148Z,3.85
2023-05-14T15:56:12.484Z,3.45
2023-05-14T15:58:38.985Z,3.25
2023-05-14T16:01:05.450Z,4.10
2023-05-14T16:03:34.684Z,3.42
2023-05-14T16:06:01.162Z,3.58
2023-05-14T16:08:27.668Z,3.67
2023-05-14T16:10:53.975Z,3.42
2023-05-14T16:13:21.207Z,3.15
2023-05-14T16:15:48.164Z,3.58
2023-05-14T16:18:14.835Z,3.13
2023-05-14T16:20:44.812Z,3.47
2023-05-14T16:23:13.878Z,3.35
2023-05-14T16:25:43.619Z,4.70
2023-05-14T16:28:10.096Z,3.20
2023-05-14T16:30:37.146Z,3.03
2023-05-14T16:33:04.263Z,3.15
2023-05-14T16:35:31.209Z,3.03
2023-05-14T16:37:57.752Z,2.85
2023-05-14T16:40:24.639Z,2.42
2023-05-14T16:42:54.274Z,2.75
2023-05-14T16:45:20.653Z,2.70
2023-05-14T16:47:47.155Z,2.95
2023-05-14T16:50:13.584Z,3.05
2023-05-14T16:52:40.176Z,3.40
2023-05-14T16:55:07.090Z,2.60
2023-05-14T16:57:34.723Z,2.70
2023-05-14T17:00:01.375Z,3.15
2023-05-14T17:02:29.782Z,2.72
2023-05-14T17:04:56.389Z,3.13
2023-05-14T17:07:25.793Z,2.95
2023-05-14T17:09:52.352Z,2.45
2023-05-14T17:12:21.316Z,2.58
2023-05-14T17:14:47.647Z,2.90
2023-05-14T17:17:14.228Z,2.72
2023-05-14T17:19:40.877Z,2.80
2023-05-14T17:22:07.257Z,3.45
2023-05-14T17:24:35.041Z,2.60
2023-05-14T17:27:01.480Z,2.75
2023-05-14T17:29:27.818Z,2.40
2023-05-14T17:31:54.458Z,2.75
2023-05-14T17:34:21.017Z,2.83
2023-05-14T17:36:47.629Z,2.55
2023-05-14T17:39:14.280Z,2.72
2023-05-14T17:41:41.987Z,2.50
2023-05-14T17:44:10.213Z,2.47
2023-05-14T17:46:37.906Z,2.50
2023-05-14T17:49:04.336Z,2.60
2023-05-14T17:51:31.425Z,2.67
2023-05-14T17:53:57.946Z,2.35
2023-05-14T17:56:24.698Z,2.22
2023-05-14T17:58:51.093Z,2.67
2023-05-14T18:01:17.652Z,2.40
2023-05-14T18:03:44.485Z,2.63
2023-05-14T18:06:11.272Z,2.40
2023-05-14T18:08:38.151Z,2.95
2023-05-14T18:11:04.510Z,2.35
2023-05-14T18:13:30.940Z,2.97
2023-05-14T18:15:57.408Z,2.80
2023-05-14T18:18:23.978Z,2.40
2023-05-14T18:20:51.940Z,2.80
2023-05-14T18:23:18.622Z,2.58
2023-05-14T18:25:45.178Z,2.88
2023-05-14T18:28:11.670Z,3.92
2023-05-14T18:30:38.087Z,3.20
2023-05-14T18:33:07.574Z,2.70
2023-05-14T18:35:35.142Z,2.63
2023-05-14T18:38:02.822Z,2.92
2023-05-14T18:40:29.375Z,3.05
2023-05-14T18:42:56.705Z,2.97
2023-05-14T18:45:24.171Z,2.85
2023-05-14T18:47:51.444Z,3.08
2023-05-14T18:50:17.945Z,2.92
2023-05-14T18:52:44.423Z,2.95
2023-05-14T18:55:10.944Z,3.38
2023-05-14T18:57:37.496Z,3.00
2023-05-14T19:00:05.064Z,2.80
2023-05-14T19:02:31.809Z,3.67
2023-05-14T19:04:58.557Z,3.42
2023-05-14T19:07:25.000Z,3.30
2023-05-14T19:09:51.831Z,3.42
2023-05-14T19:12:18.184Z,3.63
2023-05-14T19:14:44.627Z,3.97
2023-05-14T19:17:11.197Z,3.03
2023-05-14T19:19:39.127Z,3.00
2023-05-14T19:22:06.052Z,2.70
2023-05-14T19:24:32.545Z,2.97
2023-05-14T19:26:59.394Z,3.33
2023-05-14T19:29:25.839Z,3.35
2023-05-14T19:31:52.190Z,3.70
2023-05-14T19:34:18.720Z,3.75
2023-05-14T19:36:45.065Z,2.88
2023-05-14T19:39:11.472Z,3.95
2023-05-14T19:41:37.839Z,3.08
2023-05-14T19:44:06.919Z,3.00
2023-05-14T19:46:33.543Z,3.00
2023-05-14T19:49:00.290Z,3.38
2023-05-14T19:51:26.661Z,2.72
2023-05-14T19:53:53.109Z,4.32
2023-05-14T19:56:19.571Z,3.67
2023-05-14T19:58:48.917Z,4.25
2023-05-14T20:01:15.343Z,3.70
2023-05-14T20:03:41.774Z,3.58
2023-05-14T20:06:08.478Z,4.07
2023-05-14T20:08:34.853Z,3.72
2023-05-14T20:11:01.434Z,4.18
2023-05-14T20:13:31.573Z,3.97
2023-05-14T20:15:58.860Z,3.50
2023-05-14T20:18:25.499Z,4.28
2023-05-14T20:20:51.917Z,6.20
2023-05-14T20:23:21.625Z,3.92
2023-05-14T20:25:48.255Z,4.18
2023-05-14T20:28:14.583Z,3.42
2023-05-14T20:30:41.047Z,3.70
2023-05-14T20:33:08.285Z,4.40
2023-05-14T20:35:34.752Z,4.18
2023-05-14T20:38:02.079Z,4.47
2023-05-14T20:40:28.461Z,3.50
2023-05-14T20:42:54.911Z,4.72
2023-05-14T20:45:21.569Z,3.70
2023-05-14T20:47:47.984Z,3.58
2023-05-14T20:50:14.328Z,3.95
2023-05-14T20:52:40.759Z,3.38
2023-05-14T20:55:07.718Z,3.92
2023-05-14T20:57:34.245Z,5.60
2023-05-14T21:00:01.498Z,4.95
2023-05-14T21:02:28.141Z,4.50
2023-05-14T21:04:54.679Z,3.10
2023-05-14T21:07:21.155Z,3.38
2023-05-14T21:09:52.080Z,3.28
2023-05-14T21:12:19.216Z,3.65
2023-05-14T21:14:45.719Z,3.03
2023-05-14T21:17:12.466Z,3.45
2023-05-14T21:19:39.046Z,3.88
2023-05-14T21:22:06.504Z,3.13
2023-05-14T21:24:32.853Z,3.63
2023-05-14T21:26:59.248Z,4.53
2023-05-14T21:29:25.714Z,8.00
2023-05-14T21:31:52.114Z,4.10
2023-05-14T21:34:18.502Z,4.32
2023-05-14T21:36:44.892Z,3.45
2023-05-14T21:39:11.279Z,3.45
2023-05-14T21:41:37.967Z,6.07
2023-05-14T21:44:04.360Z,3.67
2023-05-14T21:46:31.919Z,5.10
2023-05-14T21:48:58.430Z,5.78
2023-05-14T21:51:24.896Z,3.92
2023-05-14T21:53:51.246Z,4.82
2023-05-14T21:56:17.740Z,3.92
2023-05-14T21:58:44.955Z,4.15
2023-05-14T22:01:11.601Z,4.43
2023-05-14T22:03:38.233Z,3.85
2023-05-14T22:06:05.233Z,4.30
2023-05-14T22:08:32.120Z,4.38
2023-05-14T22:10:58.452Z,4.57
2023-05-14T22:13:24.880Z,4.63
2023-05-14T22:15:58.099Z,3.83
2023-05-14T22:18:32.166Z,5.20
2023-05-14T22:20:58.740Z,4.93
2023-05-14T22:23:25.080Z,4.32
2023-05-14T22:25:51.518Z,3.83
2023-05-14T22:28:17.820Z,4.22
2023-05-14T22:30:44.226Z,4.30
2023-05-14T22:33:10.597Z,4.20
2023-05-14T22:35:36.999Z,4.30
2023-05-14T22:38:03.420Z,4.68
2023-05-14T22:40:29.745Z,4.60
2023-05-14T22:42:56.069Z,4.82
2023-05-14T22:45:22.497Z,5.05
2023-05-14T22:47:49.145Z,5.03
2023-05-14T22:50:15.717Z,4.13
2023-05-14T22:52:42.307Z,4.60
2023-05-14T22:55:08.924Z,4.28
2023-05-14T22:57:35.342Z,3.92
2023-05-14T23:00:01.996Z,4.05
2023-05-14T23:02:31.186Z,4.07
2023-05-14T23:07:24.329Z,4.38
2023-05-14T23:09:50.621Z,4.60
2023-05-14T23:12:16.952Z,5.95
2023-05-14T23:14:43.285Z,4.70
2023-05-14T23:17:09.625Z,3.63
2023-05-14T23:19:36.838Z,5.15
2023-05-14T23:22:03.385Z,5.35
2023-05-14T23:24:29.911Z,4.43
2023-05-14T23:26:56.361Z,5.10
2023-05-14T23:29:22.695Z,4.40
2023-05-14T23:31:49.043Z,4.63
2023-05-14T23:34:15.506Z,4.55
2023-05-14T23:36:42.567Z,4.18
2023-05-14T23:39:09.216Z,4.93
2023-05-14T23:41:35.600Z,4.68
2023-05-14T23:44:02.142Z,4.13
2023-05-14T23:46:28.756Z,4.65
2023-05-14T23:48:57.022Z,4.55
2023-05-14T23:51:24.340Z,5.05
2023-05-14T23:53:53.068Z,4.20
2023-05-14T23:56:19.408Z,4.30
2023-05-14T23:58:46.135Z,4.65
